Time;durP1;ratioP1;P1;durP2;ratioP2;P2;SDS_P1;SDS_P2;PMS_P1;PMS_P2;Temp;Humidity;BMP_temperature;BMP_pressure;BME280_temperature;BME280_humidity;BME280_pressure;Samples;Min_cycle;Max_cycle;Signal;HPM_P1;HPM_P2
2022/05/29 00:02:22;;;;;;;12.85;3.25;;;;;;;;;;5089443;28;20032;-60
2022/05/29 00:04:48;;;;;;;8.73;3.15;;;;;;;;;;5084736;28;20043;-60
2022/05/29 00:07:16;;;;;;;10.45;3.28;;;;;;;;;;5082057;28;20350;-60
2022/05/29 00:09:43;;;;;;;11.43;3.67;;;;;;;;;;5083926;28;20097;-59
2022/05/29 00:12:11;;;;;;;8.02;3.00;;;;;;;;;;5076936;28;20040;-59
2022/05/29 00:14:37;;;;;;;10.48;2.83;;;;;;;;;;5085358;28;20032;-60
2022/05/29 00:17:04;;;;;;;9.68;3.05;;;;;;;;;;5088368;28;20035;-59
2022/05/29 00:19:29;;;;;;;10.57;2.90;;;;;;;;;;5087025;28;20041;-59
2022/05/29 00:21:56;;;;;;;13.20;3.20;;;;;;;;;;5086854;28;20044;-60
2022/05/29 00:24:22;;;;;;;12.55;2.97;;;;;;;;;;5086067;28;20394;-59
2022/05/29 00:26:48;;;;;;;10.02;2.70;;;;;;;;;;5080431;28;20440;-59
2022/05/29 00:29:14;;;;;;;9.52;2.95;;;;;;;;;;5090378;28;20040;-60
2022/05/29 00:31:40;;;;;;;7.50;3.13;;;;;;;;;;5086916;28;20047;-59
2022/05/29 00:34:06;;;;;;;8.85;3.10;;;;;;;;;;5092023;28;20131;-59
2022/05/29 00:36:38;;;;;;;13.07;3.05;;;;;;;;;;5088440;28;20092;-59
2022/05/29 00:39:03;;;;;;;14.80;3.30;;;;;;;;;;5100503;22;20087;-63
2022/05/29 00:41:32;;;;;;;8.45;3.10;;;;;;;;;;5085457;28;20039;-63
2022/05/29 00:44:16;;;;;;;9.80;2.83;;;;;;;;;;5088226;28;20166;-63
2022/05/29 00:46:47;;;;;;;10.15;3.22;;;;;;;;;;5089781;28;20036;-63
2022/05/29 00:49:13;;;;;;;9.82;3.28;;;;;;;;;;5080759;28;20043;-63
2022/05/29 00:51:42;;;;;;;10.40;3.10;;;;;;;;;;5070759;28;20403;-63
2022/05/29 00:54:08;;;;;;;9.60;2.88;;;;;;;;;;5071160;28;20402;-63
2022/05/29 00:56:34;;;;;;;8.65;3.15;;;;;;;;;;5084702;28;20074;-63
2022/05/29 00:59:00;;;;;;;9.30;3.20;;;;;;;;;;5052889;28;20051;-63
2022/05/29 01:01:28;;;;;;;13.70;3.47;;;;;;;;;;5068130;28;20048;-63
2022/05/29 01:03:55;;;;;;;9.60;3.13;;;;;;;;;;5061544;28;20040;-63
2022/05/29 01:06:21;;;;;;;11.23;3.30;;;;;;;;;;5069142;28;20087;-63
2022/05/29 01:08:47;;;;;;;7.88;3.42;;;;;;;;;;5069221;28;20105;-63
2022/05/29 01:11:24;;;;;;;8.27;2.90;;;;;;;;;;5072536;28;20036;-63
2022/05/29 01:13:52;;;;;;;8.38;3.80;;;;;;;;;;5068578;28;20121;-63
2022/05/29 01:16:24;;;;;;;8.63;3.00;;;;;;;;;;5067621;28;20036;-63
2022/05/29 01:19:09;;;;;;;7.78;3.20;;;;;;;;;;5060743;28;20055;-63
2022/05/29 01:21:47;;;;;;;8.57;3.25;;;;;;;;;;5065422;28;20052;-63
2022/05/29 01:24:22;;;;;;;10.20;3.33;;;;;;;;;;5077300;28;20032;-63
2022/05/29 01:27:09;;;;;;;10.65;3.42;;;;;;;;;;5071725;28;20033;-63
2022/05/29 01:29:38;;;;;;;11.15;3.65;;;;;;;;;;5088586;28;20044;-63
2022/05/29 01:32:09;;;;;;;11.02;3.50;;;;;;;;;;5072803;28;20048;-63
2022/05/29 01:34:37;;;;;;;7.05;3.17;;;;;;;;;;5069152;28;20501;-63
2022/05/29 01:37:21;;;;;;;8.30;3.13;;;;;;;;;;5059079;28;20044;-63
2022/05/29 01:39:53;;;;;;;10.73;3.00;;;;;;;;;;5076096;28;20052;-63
2022/05/29 01:42:22;;;;;;;8.45;3.50;;;;;;;;;;5071697;28;20119;-63
2022/05/29 01:45:07;;;;;;;9.05;3.00;;;;;;;;;;5079226;28;20023;-63
2022/05/29 01:47:59;;;;;;;7.47;2.80;;;;;;;;;;5069242;28;20043;-63
2022/05/29 01:50:45;;;;;;;10.48;3.47;;;;;;;;;;5065200;28;20056;-63
2022/05/29 01:53:13;;;;;;;15.45;3.58;;;;;;;;;;5081447;28;20123;-63
2022/05/29 01:55:45;;;;;;;12.32;3.55;;;;;;;;;;5072183;28;20041;-63
2022/05/29 01:58:15;;;;;;;10.55;3.28;;;;;;;;;;5061866;28;20102;-63
2022/05/29 02:00:41;;;;;;;9.48;3.90;;;;;;;;;;5076303;28;20032;-63
2022/05/29 02:03:14;;;;;;;14.57;3.80;;;;;;;;;;5082603;28;20505;-63
2022/05/29 02:05:42;;;;;;;9.82;3.65;;;;;;;;;;5083652;28;20074;-63
2022/05/29 02:08:17;;;;;;;13.10;3.65;;;;;;;;;;5069904;28;20043;-63
2022/05/29 02:10:45;;;;;;;11.82;3.83;;;;;;;;;;5087699;28;20489;-63
2022/05/29 02:13:16;;;;;;;9.95;3.70;;;;;;;;;;5073055;28;20571;-63
2022/05/29 02:15:55;;;;;;;14.15;3.85;;;;;;;;;;5078079;28;20040;-63
2022/05/29 02:18:25;;;;;;;10.85;3.83;;;;;;;;;;5061544;28;20044;-63
2022/05/29 02:20:53;;;;;;;13.80;3.47;;;;;;;;;;5088658;28;20035;-63
2022/05/29 02:23:39;;;;;;;12.13;3.70;;;;;;;;;;5068048;28;20037;-63
2022/05/29 02:26:06;;;;;;;11.20;3.45;;;;;;;;;;5072622;28;20060;-63
2022/05/29 02:28:41;;;;;;;11.45;3.60;;;;;;;;;;5082063;28;20024;-63
2022/05/29 02:31:07;;;;;;;10.95;3.63;;;;;;;;;;5084026;28;20081;-63
2022/05/29 02:33:39;;;;;;;14.10;3.63;;;;;;;;;;5072539;28;20036;-63
2022/05/29 02:36:22;;;;;;;12.85;3.75;;;;;;;;;;5075716;28;20512;-63
2022/05/29 02:39:07;;;;;;;11.93;3.85;;;;;;;;;;5078804;28;20047;-63
2022/05/29 02:41:39;;;;;;;9.80;3.35;;;;;;;;;;5057225;28;20051;-63
2022/05/29 02:44:18;;;;;;;14.60;3.53;;;;;;;;;;5074414;28;20500;-63
2022/05/29 02:46:47;;;;;;;11.35;3.47;;;;;;;;;;5063057;28;20078;-63
2022/05/29 02:49:19;;;;;;;11.90;3.72;;;;;;;;;;5069482;28;20036;-63
2022/05/29 02:51:50;;;;;;;12.07;3.25;;;;;;;;;;5079528;28;20122;-63
2022/05/29 02:54:25;;;;;;;7.80;3.28;;;;;;;;;;5070263;28;20094;-63
2022/05/29 02:56:52;;;;;;;12.38;4.03;;;;;;;;;;5062254;28;20043;-63
2022/05/29 02:59:18;;;;;;;12.25;3.65;;;;;;;;;;5083557;28;20066;-63
2022/05/29 03:01:52;;;;;;;10.77;3.67;;;;;;;;;;5066332;28;20044;-63
2022/05/29 03:04:36;;;;;;;9.88;2.97;;;;;;;;;;5071805;28;20044;-63
2022/05/29 03:07:05;;;;;;;12.27;3.50;;;;;;;;;;5090870;28;20042;-63
2022/05/29 03:09:57;;;;;;;12.05;3.38;;;;;;;;;;5088073;28;20550;-63
2022/05/29 03:12:23;;;;;;;;;;;;;;;;;;5068912;28;20041;-63
2022/05/29 03:14:51;;;;;;;11.02;3.10;;;;;;;;;;5079875;28;19923;-63
2022/05/29 03:17:27;;;;;;;13.57;3.22;;;;;;;;;;5079566;28;20052;-63
2022/05/29 03:20:03;;;;;;;8.73;3.13;;;;;;;;;;5070273;28;20029;-63
2022/05/29 03:22:37;;;;;;;12.55;3.65;;;;;;;;;;5070832;28;20040;-63
2022/05/29 03:25:15;;;;;;;11.80;3.47;;;;;;;;;;5050651;28;20076;-63
2022/05/29 03:27:45;;;;;;;9.20;3.72;;;;;;;;;;5062093;28;20118;-63
2022/05/29 03:30:11;;;;;;;11.13;3.28;;;;;;;;;;5072125;28;20037;-63
2022/05/29 03:32:38;;;;;;;7.95;3.00;;;;;;;;;;5080378;28;20047;-63
2022/05/29 03:35:16;;;;;;;12.98;3.70;;;;;;;;;;5085062;28;20506;-63
2022/05/29 03:37:42;;;;;;;12.27;3.53;;;;;;;;;;5086346;28;20070;-63
2022/05/29 03:40:09;;;;;;;12.35;4.20;;;;;;;;;;5069235;28;20118;-63
2022/05/29 03:42:35;;;;;;;12.02;3.60;;;;;;;;;;5066523;28;20036;-63
2022/05/29 03:45:01;;;;;;;10.30;3.45;;;;;;;;;;5080035;28;20047;-63
2022/05/29 03:47:27;;;;;;;13.05;3.53;;;;;;;;;;5080686;28;20034;-63
2022/05/29 03:49:53;;;;;;;10.35;3.60;;;;;;;;;;5081328;28;20119;-63
2022/05/29 03:52:19;;;;;;;9.35;3.22;;;;;;;;;;5071461;28;20032;-63
2022/05/29 03:54:45;;;;;;;11.00;3.30;;;;;;;;;;5075787;28;20080;-63
2022/05/29 03:57:11;;;;;;;12.20;3.47;;;;;;;;;;5059001;28;20087;-63
2022/05/29 03:59:37;;;;;;;12.48;3.70;;;;;;;;;;5059771;28;20037;-63
2022/05/29 04:02:03;;;;;;;13.57;3.10;;;;;;;;;;5071615;28;20115;-63
2022/05/29 04:04:29;;;;;;;11.30;3.97;;;;;;;;;;5074753;28;20039;-63
2022/05/29 04:06:55;;;;;;;10.38;3.47;;;;;;;;;;5069948;28;20045;-63
2022/05/29 04:12:07;;;;;;;13.43;3.60;;;;;;;;;;5076204;28;20052;-63
2022/05/29 04:14:37;;;;;;;13.18;3.30;;;;;;;;;;5066511;28;20481;-63
2022/05/29 04:17:04;;;;;;;9.80;2.90;;;;;;;;;;5087735;28;20498;-63
2022/05/29 04:19:30;;;;;;;11.63;3.10;;;;;;;;;;5078668;28;20033;-63
2022/05/29 04:21:56;;;;;;;9.85;2.70;;;;;;;;;;5073453;28;20037;-63
2022/05/29 04:24:22;;;;;;;10.18;2.80;;;;;;;;;;5080884;28;20036;-63
2022/05/29 04:26:49;;;;;;;7.55;3.00;;;;;;;;;;5067211;28;20039;-63
2022/05/29 04:29:15;;;;;;;10.85;3.17;;;;;;;;;;5072299;28;20044;-63
2022/05/29 04:32:59;;;;;;;10.32;3.30;;;;;;;;;;5075788;28;20045;-63
2022/05/29 04:34:27;;;;;;;8.80;2.95;;;;;;;;;;5065625;28;20150;-63
2022/05/29 04:36:53;;;;;;;8.85;3.08;;;;;;;;;;5074828;28;20094;-63
2022/05/29 04:39:19;;;;;;;8.82;2.80;;;;;;;;;;5072935;28;20037;-63
2022/05/29 04:41:45;;;;;;;13.52;2.78;;;;;;;;;;5072753;28;20057;-63
2022/05/29 04:44:11;;;;;;;13.27;3.13;;;;;;;;;;5066215;28;20055;-63
2022/05/29 04:46:37;;;;;;;9.13;3.22;;;;;;;;;;5072880;28;20515;-63
2022/05/29 04:49:03;;;;;;;9.23;2.42;;;;;;;;;;5072606;28;20090;-63
2022/05/29 04:51:29;;;;;;;10.40;2.47;;;;;;;;;;5078608;28;20119;-63
2022/05/29 04:53:55;;;;;;;13.38;3.20;;;;;;;;;;5085727;28;20115;-63
2022/05/29 04:56:21;;;;;;;19.02;3.63;;;;;;;;;;5071046;28;20032;-63
2022/05/29 04:58:47;;;;;;;9.23;3.15;;;;;;;;;;5082675;28;20101;-63
2022/05/29 05:01:13;;;;;;;10.13;2.80;;;;;;;;;;5081450;28;20043;-63
2022/05/29 05:03:39;;;;;;;9.00;3.03;;;;;;;;;;5076454;28;20043;-63
2022/05/29 05:06:05;;;;;;;12.30;3.53;;;;;;;;;;5071288;28;20040;-63
2022/05/29 05:08:31;;;;;;;9.07;3.00;;;;;;;;;;5072747;28;20397;-63
2022/05/29 05:10:57;;;;;;;8.43;2.97;;;;;;;;;;5075440;28;20032;-63
2022/05/29 05:13:23;;;;;;;11.60;3.25;;;;;;;;;;5068658;28;20489;-63
2022/05/29 05:15:49;;;;;;;12.57;3.00;;;;;;;;;;5068550;28;20041;-63
2022/05/29 05:18:15;;;;;;;8.48;2.85;;;;;;;;;;5091580;28;20066;-63
2022/05/29 05:20:41;;;;;;;10.75;3.25;;;;;;;;;;5064959;28;20119;-63
2022/05/29 05:23:08;;;;;;;10.93;2.83;;;;;;;;;;5071144;28;20400;-63
2022/05/29 05:25:34;;;;;;;9.43;2.90;;;;;;;;;;5072596;28;20040;-63
2022/05/29 05:28:00;;;;;;;8.25;2.33;;;;;;;;;;5079716;28;20186;-63
2022/05/29 05:30:27;;;;;;;9.07;2.72;;;;;;;;;;5074385;28;20036;-63
2022/05/29 05:32:53;;;;;;;11.65;2.47;;;;;;;;;;5059306;28;20135;-63
2022/05/29 05:35:19;;;;;;;12.90;3.80;;;;;;;;;;5064340;28;20040;-63
2022/05/29 05:37:45;;;;;;;9.52;2.95;;;;;;;;;;5063283;28;20056;-63
2022/05/29 05:40:13;;;;;;;8.65;2.50;;;;;;;;;;5075508;28;20043;-63
2022/05/29 05:42:39;;;;;;;8.95;2.22;;;;;;;;;;5093223;28;20044;-63
2022/05/29 05:45:07;;;;;;;9.25;2.40;;;;;;;;;;5072938;28;20036;-63
2022/05/29 05:47:34;;;;;;;10.70;2.92;;;;;;;;;;5060055;28;20110;-63
2022/05/29 05:50:00;;;;;;;12.48;3.08;;;;;;;;;;5062497;28;20041;-63
2022/05/29 05:52:26;;;;;;;6.93;3.03;;;;;;;;;;5066024;28;20055;-63
2022/05/29 05:54:52;;;;;;;9.50;2.53;;;;;;;;;;5072981;28;20044;-63
2022/05/29 05:57:19;;;;;;;10.98;3.00;;;;;;;;;;5069498;28;20036;-63
2022/05/29 05:59:45;;;;;;;10.38;2.22;;;;;;;;;;5064502;28;20110;-63
2022/05/29 06:02:11;;;;;;;8.00;2.33;;;;;;;;;;5074991;28;20071;-63
2022/05/29 06:04:41;;;;;;;12.05;2.80;;;;;;;;;;5067980;28;20037;-63
2022/05/29 06:07:08;;;;;;;10.48;2.63;;;;;;;;;;5069065;28;20098;-63
2022/05/29 06:09:34;;;;;;;12.15;2.60;;;;;;;;;;5047998;28;20098;-63
2022/05/29 06:12:02;;;;;;;12.38;2.63;;;;;;;;;;5064574;28;20049;-63
2022/05/29 06:14:28;;;;;;;7.25;2.20;;;;;;;;;;5062104;28;20045;-63
2022/05/29 06:16:55;;;;;;;11.02;2.88;;;;;;;;;;5047473;28;20047;-63
2022/05/29 06:19:20;;;;;;;7.97;2.17;;;;;;;;;;5063814;28;20052;-63
2022/05/29 06:21:46;;;;;;;10.23;2.15;;;;;;;;;;5064000;28;20476;-63
2022/05/29 06:24:12;;;;;;;10.52;2.65;;;;;;;;;;5073866;28;20035;-63
2022/05/29 06:26:38;;;;;;;12.63;2.40;;;;;;;;;;5071947;28;20029;-63
2022/05/29 06:29:04;;;;;;;8.88;2.65;;;;;;;;;;5067122;28;20036;-63
2022/05/29 06:31:30;;;;;;;12.40;2.65;;;;;;;;;;5066079;28;20502;-63
2022/05/29 06:33:56;;;;;;;12.52;2.65;;;;;;;;;;5067988;28;20040;-63
2022/05/29 06:36:23;;;;;;;8.65;2.33;;;;;;;;;;5060861;28;20037;-63
2022/05/29 06:38:50;;;;;;;11.10;3.15;;;;;;;;;;5068206;28;20043;-63
2022/05/29 06:41:17;;;;;;;22.55;2.90;;;;;;;;;;5068533;28;20036;-63
2022/05/29 06:43:43;;;;;;;12.20;2.42;;;;;;;;;;5078690;22;20037;-60
2022/05/29 06:46:10;;;;;;;10.50;2.78;;;;;;;;;;5096263;28;20049;-60
2022/05/29 06:48:37;;;;;;;10.35;2.63;;;;;;;;;;5102020;28;20046;-60
2022/05/29 06:51:16;;;;;;;9.73;2.67;;;;;;;;;;5099979;28;20043;-60
2022/05/29 06:53:42;;;;;;;13.02;2.40;;;;;;;;;;5099321;28;20039;-60
2022/05/29 06:56:09;;;;;;;11.63;2.78;;;;;;;;;;5082675;28;20035;-60
2022/05/29 06:58:35;;;;;;;15.80;2.78;;;;;;;;;;5081612;28;20037;-60
2022/05/29 07:09:20;;;;;;;9.98;2.10;;;;;;;;;;5084209;28;20036;-60
2022/05/29 07:11:49;;;;;;;11.63;2.22;;;;;;;;;;5085547;28;20515;-60
2022/05/29 07:14:15;;;;;;;9.85;2.30;;;;;;;;;;5080755;28;20043;-60
2022/05/29 07:16:43;;;;;;;12.45;3.00;;;;;;;;;;5082619;28;20044;-60
2022/05/29 07:19:09;;;;;;;13.93;2.38;;;;;;;;;;5083231;28;20036;-60
2022/05/29 07:21:40;;;;;;;12.15;2.70;;;;;;;;;;5087442;28;20036;-60
2022/05/29 07:24:07;;;;;;;12.50;3.15;;;;;;;;;;5082430;28;20481;-60
2022/05/29 07:26:33;;;;;;;9.23;2.13;;;;;;;;;;5082122;28;20457;-60
2022/05/29 07:28:59;;;;;;;13.02;2.15;;;;;;;;;;5083396;28;20258;-60
2022/05/29 07:31:25;;;;;;;14.63;2.60;;;;;;;;;;5086102;28;20036;-60
2022/05/29 07:33:51;;;;;;;12.75;2.40;;;;;;;;;;5083817;28;20124;-60
2022/05/29 07:36:21;;;;;;;13.13;2.20;;;;;;;;;;5083130;28;21048;-60
2022/05/29 07:38:47;;;;;;;14.40;2.55;;;;;;;;;;5087018;28;20036;-60
2022/05/29 07:43:59;;;;;;;10.68;2.72;;;;;;;;;;5090871;28;20059;-60
2022/05/29 07:46:25;;;;;;;10.65;2.45;;;;;;;;;;5088876;28;20039;-60
2022/05/29 07:48:51;;;;;;;14.73;2.40;;;;;;;;;;5087462;28;20443;-60
2022/05/29 07:51:17;;;;;;;11.52;2.13;;;;;;;;;;5089847;28;20063;-60
2022/05/29 07:53:44;;;;;;;12.65;2.28;;;;;;;;;;5089743;28;20067;-60
2022/05/29 07:56:10;;;;;;;12.35;2.55;;;;;;;;;;5087638;28;20044;-60
2022/05/29 07:58:38;;;;;;;12.50;2.45;;;;;;;;;;5083470;28;20039;-60
2022/05/29 08:01:05;;;;;;;10.88;2.78;;;;;;;;;;5082280;28;20040;-60
2022/05/29 08:03:32;;;;;;;7.90;2.65;;;;;;;;;;5084261;28;20043;-60
2022/05/29 08:05:58;;;;;;;11.52;2.15;;;;;;;;;;5085208;28;20038;-60
2022/05/29 08:08:26;;;;;;;10.77;2.15;;;;;;;;;;5088250;28;20036;-60
2022/05/29 08:10:52;;;;;;;11.65;2.25;;;;;;;;;;5084169;28;20498;-60
2022/05/29 08:13:18;;;;;;;11.38;2.25;;;;;;;;;;5083698;28;20109;-60
2022/05/29 08:15:45;;;;;;;14.75;2.10;;;;;;;;;;5083782;28;20051;-60
2022/05/29 08:18:11;;;;;;;12.52;2.40;;;;;;;;;;5084865;28;20040;-60
2022/05/29 08:20:38;;;;;;;13.63;1.95;;;;;;;;;;5086453;28;20464;-60
2022/05/29 08:23:04;;;;;;;13.57;2.00;;;;;;;;;;5085498;28;20124;-60
2022/05/29 08:31:00;;;;;;;12.13;2.08;;;;;;;;;;5092522;28;20048;-60
2022/05/29 08:33:27;;;;;;;10.15;1.70;;;;;;;;;;5091316;28;20063;-60
2022/05/29 08:35:55;;;;;;;6.03;1.80;;;;;;;;;;5084389;28;20044;-61
2022/05/29 08:38:22;;;;;;;6.88;1.40;;;;;;;;;;5084690;28;20039;-61
2022/05/29 08:40:50;;;;;;;7.38;1.70;;;;;;;;;;5087919;28;20043;-61
2022/05/29 08:43:27;;;;;;;8.00;1.50;;;;;;;;;;5091421;28;20043;-61
2022/05/29 08:45:54;;;;;;;7.50;1.52;;;;;;;;;;5083628;28;20388;-61
2022/05/29 08:48:21;;;;;;;8.45;1.98;;;;;;;;;;5079831;28;20558;-61
2022/05/29 08:50:55;;;;;;;5.50;1.33;;;;;;;;;;5091646;28;20040;-61
2022/05/29 08:53:29;;;;;;;5.07;1.30;;;;;;;;;;5090024;28;20028;-61
2022/05/29 08:55:59;;;;;;;5.93;1.25;;;;;;;;;;5090643;28;20504;-61
2022/05/29 08:58:34;;;;;;;6.47;1.33;;;;;;;;;;5091205;28;20036;-60
2022/05/29 09:01:21;;;;;;;4.43;0.80;;;;;;;;;;5082574;28;20037;-60
2022/05/29 09:03:48;;;;;;;7.30;1.40;;;;;;;;;;5085345;28;20049;-59
2022/05/29 09:06:33;;;;;;;5.28;1.10;;;;;;;;;;5088777;28;20037;-60
2022/05/29 09:09:03;;;;;;;8.80;1.35;;;;;;;;;;5085779;28;20069;-59
2022/05/29 09:11:31;;;;;;;7.90;1.75;;;;;;;;;;5087603;28;20509;-60
2022/05/29 09:14:09;;;;;;;9.82;1.88;;;;;;;;;;5087087;28;20042;-60
2022/05/29 09:16:41;;;;;;;6.53;1.30;;;;;;;;;;5085288;28;20067;-59
2022/05/29 09:19:10;;;;;;;5.93;1.25;;;;;;;;;;5088238;28;20031;-60
2022/05/29 09:21:42;;;;;;;8.77;1.17;;;;;;;;;;5088954;28;20040;-60
2022/05/29 09:24:13;;;;;;;5.55;1.15;;;;;;;;;;5093312;28;20043;-59
2022/05/29 09:26:39;;;;;;;5.88;1.13;;;;;;;;;;5081520;28;20497;-59
2022/05/29 09:29:08;;;;;;;6.72;1.40;;;;;;;;;;5087235;28;20098;-59
2022/05/29 09:31:34;;;;;;;6.45;1.23;;;;;;;;;;5088910;28;20093;-60
2022/05/29 09:34:01;;;;;;;6.60;1.13;;;;;;;;;;5084803;28;20047;-59
2022/05/29 09:36:27;;;;;;;5.07;1.13;;;;;;;;;;5087303;28;20429;-60
2022/05/29 09:38:56;;;;;;;5.13;1.20;;;;;;;;;;5088519;28;20051;-59
2022/05/29 09:41:27;;;;;;;4.82;1.17;;;;;;;;;;5087964;28;20419;-60
2022/05/29 09:44:06;;;;;;;6.20;1.42;;;;;;;;;;5083729;28;20032;-59
2022/05/29 09:46:33;;;;;;;5.13;0.98;;;;;;;;;;5086715;28;20071;-60
2022/05/29 09:51:50;;;;;;;7.53;1.38;;;;;;;;;;5090738;28;20048;-59
2022/05/29 09:54:22;;;;;;;6.38;1.55;;;;;;;;;;5090422;28;20071;-60
2022/05/29 09:56:49;;;;;;;7.72;1.23;;;;;;;;;;5089206;28;20512;-59
2022/05/29 09:59:18;;;;;;;7.70;1.60;;;;;;;;;;5082291;28;20051;-59
2022/05/29 10:01:47;;;;;;;5.82;1.30;;;;;;;;;;5087761;28;20073;-59
2022/05/29 10:04:21;;;;;;;8.27;1.20;;;;;;;;;;5085437;28;20025;-59
2022/05/29 10:06:51;;;;;;;8.30;1.15;;;;;;;;;;5087195;28;20047;-60
2022/05/29 10:09:18;;;;;;;6.93;1.02;;;;;;;;;;5084800;28;20025;-59
2022/05/29 10:11:46;;;;;;;6.20;1.63;;;;;;;;;;5081735;28;20040;-60
2022/05/29 10:14:25;;;;;;;4.93;1.35;;;;;;;;;;5080252;28;20058;-60
2022/05/29 10:16:53;;;;;;;9.77;1.40;;;;;;;;;;5083904;28;20037;-60
2022/05/29 10:19:33;;;;;;;3.83;1.15;;;;;;;;;;5085101;28;20108;-60
2022/05/29 10:21:59;;;;;;;8.73;1.30;;;;;;;;;;5086763;28;20040;-59
2022/05/29 10:24:36;;;;;;;5.68;1.50;;;;;;;;;;5078219;28;20096;-59
2022/05/29 10:27:03;;;;;;;5.57;1.00;;;;;;;;;;5084735;28;20048;-59
2022/05/29 10:29:31;;;;;;;6.70;1.27;;;;;;;;;;5074539;28;20028;-59
2022/05/29 10:31:58;;;;;;;7.63;1.30;;;;;;;;;;5085517;28;20035;-59
2022/05/29 10:34:26;;;;;;;2.45;0.82;;;;;;;;;;5079998;28;20028;-59
2022/05/29 10:36:52;;;;;;;5.20;1.08;;;;;;;;;;5088234;28;20036;-59
2022/05/29 10:39:26;;;;;;;5.90;1.00;;;;;;;;;;5082973;28;20042;-60
2022/05/29 10:41:54;;;;;;;6.85;1.40;;;;;;;;;;5083320;28;20043;-59
2022/05/29 10:44:37;;;;;;;6.25;1.25;;;;;;;;;;5085585;28;20097;-60
2022/05/29 10:47:22;;;;;;;6.20;1.10;;;;;;;;;;5087045;28;20510;-60
2022/05/29 10:49:48;;;;;;;4.30;1.17;;;;;;;;;;5087634;28;20493;-60
2022/05/29 10:52:14;;;;;;;7.70;1.15;;;;;;;;;;5088854;28;20046;-60
2022/05/29 10:54:40;;;;;;;6.28;1.35;;;;;;;;;;5083327;28;20169;-60
2022/05/29 10:57:16;;;;;;;4.78;1.10;;;;;;;;;;5086193;28;20054;-60
2022/05/29 10:59:57;;;;;;;5.35;1.20;;;;;;;;;;5087860;28;20036;-60
2022/05/29 11:05:43;;;;;;;9.80;1.58;;;;;;;;;;5087700;28;20438;-60
2022/05/29 11:08:24;;;;;;;8.73;1.70;;;;;;;;;;5041135;28;20115;-60
2022/05/29 11:10:49;;;;;;;6.90;1.25;;;;;;;;;;5078915;28;20524;-60
2022/05/29 11:13:30;;;;;;;9.95;1.63;;;;;;;;;;5088788;28;20040;-59
2022/05/29 11:16:08;;;;;;;4.68;1.55;;;;;;;;;;5075754;28;20036;-59
2022/05/29 11:18:43;;;;;;;5.38;1.27;;;;;;;;;;5076453;28;20048;-59
2022/05/29 11:21:09;;;;;;;5.78;1.48;;;;;;;;;;5097931;28;20075;-59
2022/05/29 11:23:35;;;;;;;6.30;1.20;;;;;;;;;;5086259;28;20071;-59
2022/05/29 11:26:01;;;;;;;8.25;1.25;;;;;;;;;;5091202;28;20051;-59
2022/05/29 11:28:46;;;;;;;4.55;1.83;;;;;;;;;;5091649;28;20032;-59
2022/05/29 11:31:32;;;;;;;5.28;1.40;;;;;;;;;;5088531;28;20071;-60
2022/05/29 11:34:15;;;;;;;6.90;1.33;;;;;;;;;;5091662;28;20118;-59
2022/05/29 11:36:43;;;;;;;5.88;1.25;;;;;;;;;;5082287;28;20066;-59
2022/05/29 11:39:19;;;;;;;6.95;1.55;;;;;;;;;;5090219;28;20110;-60
2022/05/29 11:42:01;;;;;;;5.53;1.80;;;;;;;;;;5090882;28;20044;-59
2022/05/29 11:44:33;;;;;;;6.78;1.30;;;;;;;;;;5081646;28;20115;-59
2022/05/29 11:52:37;;;;;;;6.60;1.30;;;;;;;;;;5085154;28;20044;-59
2022/05/29 11:55:22;;;;;;;6.05;1.70;;;;;;;;;;5084723;28;20397;-59
2022/05/29 11:57:49;;;;;;;5.38;1.38;;;;;;;;;;5087965;28;20051;-59
2022/05/29 12:00:20;;;;;;;4.22;1.35;;;;;;;;;;5078720;28;20051;-59
2022/05/29 12:02:56;;;;;;;4.45;1.20;;;;;;;;;;5084535;28;20047;-59
2022/05/29 12:05:33;;;;;;;5.00;1.02;;;;;;;;;;5085961;28;20028;-60
2022/05/29 12:08:18;;;;;;;4.88;1.40;;;;;;;;;;5086486;28;20434;-60
2022/05/29 12:10:59;;;;;;;5.95;1.30;;;;;;;;;;5089055;28;20078;-59
2022/05/29 12:13:28;;;;;;;2.53;1.13;;;;;;;;;;5081211;28;20036;-60
2022/05/29 12:15:58;;;;;;;7.15;1.20;;;;;;;;;;5080414;28;20033;-59
2022/05/29 12:18:26;;;;;;;5.15;1.40;;;;;;;;;;5082762;28;20102;-59
2022/05/29 12:20:54;;;;;;;3.60;0.90;;;;;;;;;;5086990;28;20048;-59
2022/05/29 12:23:26;;;;;;;4.40;1.08;;;;;;;;;;5086138;28;20118;-59
2022/05/29 12:26:00;;;;;;;6.28;1.27;;;;;;;;;;5085014;28;20028;-59
2022/05/29 12:28:32;;;;;;;7.35;1.08;;;;;;;;;;5082918;28;20036;-59
2022/05/29 12:30:59;;;;;;;6.28;1.33;;;;;;;;;;5081974;28;20394;-59
2022/05/29 12:33:25;;;;;;;6.63;1.23;;;;;;;;;;5085343;28;20119;-60
2022/05/29 12:35:56;;;;;;;8.30;1.15;;;;;;;;;;5080255;28;20471;-59
2022/05/29 12:38:36;;;;;;;3.78;0.95;;;;;;;;;;5084477;28;20550;-59
2022/05/29 12:41:09;;;;;;;4.18;0.85;;;;;;;;;;5083223;28;20153;-59
2022/05/29 12:46:46;;;;;;;5.20;1.30;;;;;;;;;;5066068;28;20040;-61
2022/05/29 12:49:30;;;;;;;5.63;1.05;;;;;;;;;;5067638;28;20029;-62
2022/05/29 12:52:01;;;;;;;5.82;1.13;;;;;;;;;;5052828;28;20045;-61
2022/05/29 12:54:45;;;;;;;4.72;1.10;;;;;;;;;;5070139;28;20539;-61
2022/05/29 12:57:32;;;;;;;7.47;1.35;;;;;;;;;;5084267;28;20033;-62
2022/05/29 13:00:17;;;;;;;4.40;1.20;;;;;;;;;;5076489;28;20082;-61
2022/05/29 13:02:55;;;;;;;4.55;1.25;;;;;;;;;;5085094;28;20114;-61
2022/05/29 13:05:42;;;;;;;4.50;1.05;;;;;;;;;;5081620;28;20485;-61
2022/05/29 13:08:19;;;;;;;5.38;1.13;;;;;;;;;;5086711;28;20101;-61
2022/05/29 13:10:48;;;;;;;4.70;1.30;;;;;;;;;;5088541;28;20078;-61
2022/05/29 13:13:37;;;;;;;6.63;1.42;;;;;;;;;;5081173;28;20071;-61
2022/05/29 13:16:20;;;;;;;6.13;1.60;;;;;;;;;;5088675;28;20047;-61
2022/05/29 13:19:13;;;;;;;7.32;1.52;;;;;;;;;;5080815;28;20036;-61
2022/05/29 13:21:57;;;;;;;6.30;1.73;;;;;;;;;;5087028;28;20085;-61
2022/05/29 13:24:24;;;;;;;5.57;1.40;;;;;;;;;;5061057;28;20129;-61
2022/05/29 13:27:09;;;;;;;4.45;1.80;;;;;;;;;;5088034;28;20035;-61
2022/05/29 13:29:51;;;;;;;9.07;1.55;;;;;;;;;;5078431;28;20032;-61
2022/05/29 13:32:19;;;;;;;6.07;1.40;;;;;;;;;;5090421;28;20032;-61
2022/05/29 13:34:52;;;;;;;6.15;1.40;;;;;;;;;;5073431;28;20581;-61
2022/05/29 13:37:21;;;;;;;4.45;1.40;;;;;;;;;;5080900;28;20234;-61
2022/05/29 13:39:55;;;;;;;7.43;1.75;;;;;;;;;;5084870;28;20290;-61
2022/05/29 13:42:33;;;;;;;7.32;1.40;;;;;;;;;;5081864;28;20041;-61
2022/05/29 13:45:00;;;;;;;5.82;1.70;;;;;;;;;;5087246;28;20036;-61
2022/05/29 13:47:26;;;;;;;8.82;1.35;;;;;;;;;;5075775;28;20397;-61
2022/05/29 13:50:00;;;;;;;8.43;1.30;;;;;;;;;;5082957;28;20119;-61
2022/05/29 13:52:46;;;;;;;9.05;1.30;;;;;;;;;;5083678;28;20502;-61
2022/05/29 13:55:12;;;;;;;9.13;1.50;;;;;;;;;;5084642;28;20036;-61
2022/05/29 14:06:22;;;;;;;9.68;1.80;;;;;;;;;;5088648;28;20040;-61
2022/05/29 14:08:50;;;;;;;4.93;1.63;;;;;;;;;;5091206;28;20386;-60
2022/05/29 14:11:18;;;;;;;6.18;1.50;;;;;;;;;;5075478;28;20424;-61
2022/05/29 14:13:49;;;;;;;8.00;1.63;;;;;;;;;;5089103;28;20051;-61
2022/05/29 14:16:15;;;;;;;;;;;;;;;;;;5090136;28;20032;-61
2022/05/29 14:18:56;;;;;;;6.55;1.50;;;;;;;;;;5091480;28;20323;-61
2022/05/29 14:21:22;;;;;;;9.63;1.65;;;;;;;;;;5086465;28;20040;-61
2022/05/29 14:23:51;;;;;;;8.15;1.40;;;;;;;;;;5073180;28;20077;-61
2022/05/29 14:29:26;;;;;;;8.23;1.30;;;;;;;;;;5082167;28;20093;-61
2022/05/29 14:32:11;;;;;;;8.43;1.65;;;;;;;;;;5080233;28;20178;-61
2022/05/29 14:34:53;;;;;;;9.13;1.60;;;;;;;;;;5081486;28;20086;-61
2022/05/29 14:37:28;;;;;;;6.38;1.30;;;;;;;;;;5066578;28;20035;-61
2022/05/29 14:39:54;;;;;;;9.25;1.50;;;;;;;;;;5083691;28;20036;-61
2022/05/29 14:42:23;;;;;;;11.00;1.42;;;;;;;;;;5084893;28;20034;-61
2022/05/29 14:45:08;;;;;;;5.00;1.33;;;;;;;;;;5077922;28;20059;-61
2022/05/29 14:47:54;;;;;;;7.10;1.33;;;;;;;;;;5083710;28;20032;-61
2022/05/29 14:50:32;;;;;;;5.85;1.13;;;;;;;;;;5068396;28;20074;-60
2022/05/29 14:53:05;;;;;;;7.38;1.38;;;;;;;;;;5083224;28;20070;-60
2022/05/29 14:55:45;;;;;;;8.30;1.52;;;;;;;;;;5083615;28;20032;-60
2022/05/29 14:58:27;;;;;;;5.45;1.20;;;;;;;;;;5084354;28;20493;-60
2022/05/29 15:00:54;;;;;;;8.18;1.55;;;;;;;;;;5078502;28;20171;-61
2022/05/29 15:03:23;;;;;;;6.43;1.50;;;;;;;;;;5087000;28;20032;-61
2022/05/29 15:05:58;;;;;;;9.00;1.58;;;;;;;;;;5080186;28;20044;-60
2022/05/29 15:11:24;;;;;;;7.25;1.40;;;;;;;;;;5078671;28;20044;-60
2022/05/29 15:13:56;;;;;;;11.00;1.60;;;;;;;;;;5077931;28;20044;-61
2022/05/29 15:16:44;;;;;;;9.45;1.77;;;;;;;;;;5084035;28;20036;-61
2022/05/29 15:19:17;;;;;;;11.00;1.70;;;;;;;;;;5079274;28;20068;-60
2022/05/29 15:24:31;;;;;;;9.07;2.10;;;;;;;;;;5073201;28;20032;-61
2022/05/29 15:27:02;;;;;;;8.55;1.83;;;;;;;;;;5080545;28;20078;-61
2022/05/29 15:29:32;;;;;;;7.35;1.40;;;;;;;;;;5080393;28;20101;-61
2022/05/29 15:32:04;;;;;;;11.05;2.00;;;;;;;;;;5069185;28;20481;-60
2022/05/29 15:34:46;;;;;;;7.38;1.70;;;;;;;;;;5082384;28;20035;-61
2022/05/29 15:37:29;;;;;;;6.30;1.73;;;;;;;;;;5086882;28;20374;-61
2022/05/29 15:40:03;;;;;;;8.13;2.00;;;;;;;;;;5077067;28;20497;-61
2022/05/29 15:42:30;;;;;;;9.30;1.80;;;;;;;;;;5080159;28;20047;-61
2022/05/29 15:44:59;;;;;;;8.48;2.10;;;;;;;;;;5077261;28;20048;-61
2022/05/29 15:47:31;;;;;;;9.52;1.65;;;;;;;;;;5073350;28;20490;-61
2022/05/29 15:50:03;;;;;;;10.20;1.80;;;;;;;;;;5084166;28;20043;-61
2022/05/29 15:52:48;;;;;;;8.20;1.55;;;;;;;;;;5056502;28;20048;-61